createdAt,value
2022-12-03T00:01:53.218Z,22.30
2022-12-03T00:06:04.898Z,15.37
2022-12-03T00:10:18.064Z,13.97
2022-12-03T00:14:29.630Z,16.33
2022-12-03T00:18:41.133Z,17.87
2022-12-03T00:22:52.663Z,18.30
2022-12-03T00:27:04.097Z,19.60
2022-12-03T00:31:15.956Z,19.87
2022-12-03T00:35:27.482Z,23.23
2022-12-03T00:39:38.915Z,18.27
2022-12-03T00:43:50.425Z,19.53
2022-12-03T00:48:01.994Z,18.40
2022-12-03T00:52:13.599Z,21.47
2022-12-03T00:56:25.097Z,18.30
2022-12-03T01:00:37.119Z,18.90
2022-12-03T01:04:48.683Z,21.40
2022-12-03T01:09:00.407Z,20.73
2022-12-03T01:13:12.019Z,21.17
2022-12-03T01:17:23.591Z,19.10
2022-12-03T01:21:35.204Z,19.43
2022-12-03T01:25:46.689Z,22.53
2022-12-03T01:29:58.304Z,24.83
2022-12-03T01:34:10.033Z,22.63
2022-12-03T01:38:21.527Z,20.60
2022-12-03T01:42:36.745Z,18.90
2022-12-03T01:46:49.047Z,24.83
2022-12-03T01:51:00.793Z,22.33
2022-12-03T01:55:21.097Z,18.97
2022-12-03T01:59:36.212Z,22.93
2022-12-03T02:03:47.975Z,22.67
2022-12-03T02:08:00.631Z,21.63
2022-12-03T02:12:14.641Z,18.17
2022-12-03T02:16:26.461Z,24.27
2022-12-03T02:20:47.667Z,18.57
2022-12-03T02:24:59.305Z,19.90
2022-12-03T02:29:11.328Z,18.93
2022-12-03T02:33:23.029Z,23.03
2022-12-03T02:37:37.318Z,20.97
2022-12-03T02:42:07.541Z,20.73
2022-12-03T02:46:20.773Z,20.70
2022-12-03T02:50:35.928Z,22.80
2022-12-03T02:54:48.432Z,19.80
2022-12-03T02:59:03.089Z,17.43
2022-12-03T03:03:16.910Z,21.43
2022-12-03T03:07:28.717Z,20.57
2022-12-03T03:11:40.365Z,18.90
2022-12-03T03:15:52.151Z,19.97
2022-12-03T03:20:06.572Z,21.10
2022-12-03T03:24:18.531Z,23.07
2022-12-03T03:28:34.594Z,21.03
2022-12-03T03:32:46.194Z,20.70
2022-12-03T03:36:58.079Z,20.03
2022-12-03T03:41:11.345Z,19.40
2022-12-03T03:45:28.726Z,17.53
2022-12-03T03:49:42.058Z,21.00
2022-12-03T03:53:54.169Z,18.70
2022-12-03T03:58:06.061Z,17.57
2022-12-03T04:02:24.652Z,15.90
2022-12-03T04:06:36.225Z,14.17
2022-12-03T04:11:06.286Z,19.07
2022-12-03T04:15:17.843Z,15.30
2022-12-03T04:19:29.360Z,14.47
2022-12-03T04:23:40.919Z,13.67
2022-12-03T04:28:11.146Z,20.17
2022-12-03T04:32:41.356Z,17.23
2022-12-03T04:36:52.973Z,17.93
2022-12-03T04:41:04.553Z,17.77
2022-12-03T04:45:16.177Z,16.97
2022-12-03T04:49:27.805Z,19.33
2022-12-03T04:53:44.726Z,20.07
2022-12-03T04:57:57.776Z,16.93
2022-12-03T05:02:09.418Z,19.13
2022-12-03T05:06:21.215Z,15.80
2022-12-03T05:10:32.793Z,19.60
2022-12-03T05:14:44.320Z,19.73
2022-12-03T05:18:55.954Z,21.77
2022-12-03T05:23:09.309Z,22.03
2022-12-03T05:27:23.845Z,23.70
2022-12-03T05:31:35.914Z,21.77
2022-12-03T05:35:48.157Z,18.83
2022-12-03T05:39:59.720Z,23.43
2022-12-03T05:44:13.222Z,22.47
2022-12-03T05:48:27.732Z,22.87
2022-12-03T05:52:39.308Z,21.40
2022-12-03T05:56:50.831Z,22.50
2022-12-03T06:01:02.397Z,22.30
2022-12-03T06:05:15.580Z,20.00
2022-12-03T06:09:27.154Z,22.00
2022-12-03T06:13:38.724Z,23.50
2022-12-03T06:17:50.336Z,20.60
2022-12-03T06:22:01.955Z,20.10
2022-12-03T06:26:14.958Z,20.63
2022-12-03T06:30:26.512Z,20.43
2022-12-03T06:34:38.139Z,19.87
2022-12-03T06:38:49.707Z,19.30
2022-12-03T06:43:01.287Z,16.00
2022-12-03T06:47:13.006Z,20.10
2022-12-03T06:51:24.568Z,19.13
2022-12-03T06:55:36.285Z,17.93
2022-12-03T06:59:47.875Z,20.90
2022-12-03T07:03:59.500Z,18.77
2022-12-03T07:08:11.152Z,18.07
2022-12-03T07:12:22.844Z,22.00
2022-12-03T07:16:38.637Z,24.03
2022-12-03T07:20:50.184Z,25.17
2022-12-03T07:25:01.882Z,24.10
2022-12-03T07:29:13.457Z,26.23
2022-12-03T07:33:24.967Z,24.30
2022-12-03T07:37:36.725Z,23.20
2022-12-03T07:41:48.303Z,23.30
2022-12-03T07:45:59.847Z,25.00
2022-12-03T07:50:12.591Z,30.43
2022-12-03T07:54:24.736Z,29.03
2022-12-03T07:58:36.404Z,29.90
2022-12-03T08:02:47.989Z,30.37
2022-12-03T08:06:59.540Z,34.97
2022-12-03T08:11:14.294Z,30.67
2022-12-03T08:15:31.168Z,35.07
2022-12-03T08:19:48.087Z,25.60
2022-12-03T08:24:09.723Z,32.10
2022-12-03T08:28:23.993Z,33.63
2022-12-03T08:32:36.085Z,28.87
2022-12-03T08:36:51.797Z,37.47
2022-12-03T08:41:07.673Z,29.43
2022-12-03T08:45:29.715Z,36.20
2022-12-03T08:49:44.854Z,31.60
2022-12-03T08:54:07.467Z,31.00
2022-12-03T08:58:33.291Z,27.70
2022-12-03T09:02:47.794Z,27.07
2022-12-03T09:06:59.501Z,30.13
2022-12-03T09:11:11.179Z,28.23
2022-12-03T09:15:22.772Z,29.90
2022-12-03T09:19:34.703Z,29.03
2022-12-03T09:23:46.233Z,35.10
2022-12-03T09:27:57.790Z,24.73
2022-12-03T09:32:13.674Z,29.93
2022-12-03T09:36:28.424Z,34.20
2022-12-03T09:40:40.120Z,32.90
2022-12-03T09:44:52.428Z,33.60
2022-12-03T09:49:12.303Z,29.33
2022-12-03T09:53:27.876Z,27.13
2022-12-03T09:57:39.662Z,32.53
2022-12-03T10:01:52.986Z,26.67
2022-12-03T10:06:04.700Z,27.63
2022-12-03T10:10:25.347Z,22.60
2022-12-03T10:14:36.882Z,22.00
2022-12-03T10:18:51.402Z,21.80
2022-12-03T10:23:03.018Z,29.27
2022-12-03T10:27:23.700Z,23.47
2022-12-03T10:31:36.512Z,19.43
2022-12-03T10:35:48.116Z,24.73
2022-12-03T10:40:12.133Z,23.80
2022-12-03T10:44:25.977Z,24.20
2022-12-03T10:48:38.336Z,26.20
2022-12-03T10:52:49.927Z,23.73
2022-12-03T10:57:02.176Z,26.13
2022-12-03T11:01:17.656Z,24.23
2022-12-03T11:05:29.302Z,22.10
2022-12-03T11:09:44.681Z,22.67
2022-12-03T11:14:03.268Z,22.97
2022-12-03T11:18:36.236Z,23.53
2022-12-03T11:22:51.429Z,22.50
2022-12-03T11:27:02.889Z,24.97
2022-12-03T11:31:33.690Z,20.83
2022-12-03T11:36:31.568Z,20.53
2022-12-03T11:41:23.776Z,20.23
2022-12-03T11:45:38.032Z,21.80
2022-12-03T11:49:49.700Z,21.33
2022-12-03T11:54:01.249Z,23.83
2022-12-03T11:58:30.446Z,19.30
2022-12-03T12:02:42.771Z,21.27
2022-12-03T12:06:54.326Z,45.27
2022-12-03T12:11:27.776Z,31.23
2022-12-03T12:15:40.438Z,44.20
2022-12-03T12:20:27.847Z,30.17
2022-12-03T12:24:45.632Z,23.80
2022-12-03T12:29:02.403Z,28.27
2022-12-03T12:33:19.659Z,20.93
2022-12-03T12:37:34.025Z,27.90
2022-12-03T12:41:48.944Z,21.43
2022-12-03T12:46:39.097Z,22.80
2022-12-03T12:50:44.645Z,24.67
2022-12-03T12:54:59.080Z,25.73
2022-12-03T12:59:18.504Z,31.60
2022-12-03T13:03:34.974Z,28.37
2022-12-03T13:07:46.640Z,30.50
2022-12-03T13:12:01.232Z,29.93
2022-12-03T13:16:27.992Z,29.73
2022-12-03T13:20:39.727Z,38.20
2022-12-03T13:24:54.307Z,33.97
2022-12-03T13:29:13.554Z,30.13
2022-12-03T13:33:27.957Z,30.63
2022-12-03T13:37:39.500Z,32.90
2022-12-03T13:42:09.475Z,27.67
2022-12-03T13:46:21.036Z,29.33
2022-12-03T13:50:40.043Z,24.73
2022-12-03T13:54:56.727Z,26.23
2022-12-03T13:59:08.889Z,28.17
2022-12-03T14:03:21.095Z,24.33
2022-12-03T14:07:32.590Z,26.77
2022-12-03T14:12:02.790Z,33.13
2022-12-03T14:16:14.328Z,26.37
2022-12-03T14:20:34.944Z,25.47
2022-12-03T14:24:46.813Z,29.60
2022-12-03T14:28:58.287Z,28.40
2022-12-03T14:33:09.885Z,26.10
2022-12-03T14:37:21.367Z,26.30
2022-12-03T14:41:51.497Z,30.57
2022-12-03T14:46:03.083Z,30.77
2022-12-03T14:50:30.110Z,32.40
2022-12-03T14:54:42.766Z,30.27
2022-12-03T14:58:54.436Z,37.20
2022-12-03T15:03:06.015Z,35.17
2022-12-03T15:07:17.492Z,27.20
2022-12-03T15:11:28.960Z,39.77
2022-12-03T15:15:40.444Z,29.57
2022-12-03T15:19:52.209Z,27.33
2022-12-03T15:24:04.151Z,24.90
2022-12-03T15:28:15.616Z,23.83
2022-12-03T15:32:27.059Z,28.43
2022-12-03T15:36:38.548Z,30.70
2022-12-03T15:40:50.224Z,25.30
2022-12-03T15:45:01.690Z,28.00
2022-12-03T15:49:13.198Z,30.30
2022-12-03T15:53:24.676Z,31.10
2022-12-03T15:57:36.301Z,31.83
2022-12-03T16:01:47.782Z,33.20
2022-12-03T16:05:59.811Z,39.10
2022-12-03T16:10:11.784Z,31.97
2022-12-03T16:14:23.268Z,32.03
2022-12-03T16:18:34.803Z,29.83
2022-12-03T16:22:46.242Z,35.03
2022-12-03T16:26:57.717Z,36.10
2022-12-03T16:31:09.231Z,30.50
2022-12-03T16:35:23.170Z,29.47
2022-12-03T16:39:34.603Z,36.37
2022-12-03T16:43:48.348Z,40.43
2022-12-03T16:48:01.430Z,32.00
2022-12-03T16:52:12.882Z,25.40
2022-12-03T16:56:24.321Z,34.50
2022-12-03T17:00:35.912Z,40.87
2022-12-03T17:04:47.379Z,33.37
2022-12-03T17:08:59.044Z,29.80
2022-12-03T17:13:11.016Z,38.30
2022-12-03T17:17:48.049Z,38.67
2022-12-03T17:21:59.795Z,40.67
2022-12-03T17:26:11.265Z,34.07
2022-12-03T17:30:23.081Z,37.43
2022-12-03T17:34:34.591Z,37.33
2022-12-03T17:38:46.066Z,38.60
2022-12-03T17:42:57.581Z,36.83
2022-12-03T17:47:10.723Z,49.57
2022-12-03T17:51:22.267Z,42.53
2022-12-03T17:55:41.113Z,50.30
2022-12-03T17:59:57.345Z,41.37
2022-12-03T18:04:10.393Z,44.47
2022-12-03T18:08:21.955Z,45.43
2022-12-03T18:12:33.640Z,46.77
2022-12-03T18:16:45.119Z,43.57
2022-12-03T18:21:01.283Z,40.63
2022-12-03T18:25:13.291Z,41.20
2022-12-03T18:29:26.117Z,41.57
2022-12-03T18:33:37.546Z,48.73
2022-12-03T18:37:50.964Z,35.27
2022-12-03T18:42:14.492Z,41.50
2022-12-03T18:46:51.817Z,41.20
2022-12-03T18:50:57.459Z,38.30
2022-12-03T18:55:17.355Z,40.40
2022-12-03T18:59:28.803Z,38.30
2022-12-03T19:03:40.264Z,38.10
2022-12-03T19:07:53.722Z,37.83
2022-12-03T19:12:11.267Z,38.27
2022-12-03T19:16:25.841Z,36.33
2022-12-03T19:20:40.314Z,36.90
2022-12-03T19:24:51.863Z,35.13
2022-12-03T19:29:03.645Z,32.03
2022-12-03T19:33:18.023Z,34.53
2022-12-03T19:37:32.330Z,37.00
2022-12-03T19:41:44.644Z,34.03
2022-12-03T19:45:56.229Z,37.50
2022-12-03T19:50:08.612Z,36.90
2022-12-03T19:54:20.075Z,33.33
2022-12-03T19:58:31.670Z,35.63
2022-12-03T20:02:43.203Z,34.27
2022-12-03T20:06:54.768Z,34.53
2022-12-03T20:11:17.136Z,36.40
2022-12-03T20:15:29.098Z,32.07
2022-12-03T20:19:40.596Z,32.30
2022-12-03T20:23:52.179Z,33.70
2022-12-03T20:28:03.812Z,47.23
2022-12-03T20:32:15.633Z,31.67
2022-12-03T20:36:28.715Z,38.40
2022-12-03T20:40:40.193Z,34.00
2022-12-03T20:44:52.990Z,30.80
2022-12-03T20:49:04.735Z,37.00
2022-12-03T20:53:24.676Z,37.17
2022-12-03T20:57:36.530Z,34.03
2022-12-03T21:01:48.091Z,36.60
2022-12-03T21:06:01.394Z,34.63
2022-12-03T21:10:32.814Z,35.17
2022-12-03T21:14:44.348Z,39.57
2022-12-03T21:18:56.000Z,37.63
2022-12-03T21:23:08.163Z,32.47
2022-12-03T21:27:21.806Z,37.73
2022-12-03T21:31:35.384Z,31.73
2022-12-03T21:35:46.844Z,33.60
2022-12-03T21:39:58.341Z,40.03
2022-12-03T21:44:10.312Z,38.57
2022-12-03T21:48:22.293Z,39.70
2022-12-03T21:52:34.875Z,35.67
2022-12-03T21:56:46.402Z,34.23
2022-12-03T22:00:58.004Z,38.03
2022-12-03T22:05:10.786Z,40.07
2022-12-03T22:09:26.522Z,41.37
2022-12-03T22:13:39.736Z,54.77
2022-12-03T22:17:51.186Z,36.73
2022-12-03T22:22:02.685Z,39.30
2022-12-03T22:26:16.176Z,35.43
2022-12-03T22:30:27.692Z,38.77
2022-12-03T22:34:40.867Z,39.33
2022-12-03T22:38:53.038Z,41.90
2022-12-03T22:43:29.564Z,38.63
2022-12-03T22:47:41.011Z,50.23
2022-12-03T22:51:52.495Z,40.40
2022-12-03T22:56:04.087Z,37.80
2022-12-03T23:00:28.907Z,39.90
2022-12-03T23:04:40.372Z,37.43
2022-12-03T23:08:52.241Z,39.93
2022-12-03T23:13:05.885Z,37.17
2022-12-03T23:17:17.407Z,41.27
2022-12-03T23:21:33.462Z,38.97
2022-12-03T23:25:56.709Z,44.83
2022-12-03T23:30:09.206Z,40.83
2022-12-03T23:34:20.881Z,36.03
2022-12-03T23:38:32.515Z,41.63
2022-12-03T23:42:44.080Z,46.43
2022-12-03T23:46:55.680Z,41.50
2022-12-03T23:51:12.815Z,37.70
2022-12-03T23:55:24.454Z,45.17
2022-12-03T23:59:36.085Z,46.27
